Time;durP1;ratioP1;P1;durP2;ratioP2;P2;SDS_P1;SDS_P2;PMS_P1;PMS_P2;Temp;Humidity;BMP_temperature;BMP_pressure;BME280_temperature;BME280_humidity;BME280_pressure;Samples;Min_cycle;Max_cycle;Signal;HPM_P1;HPM_P2
2022/04/20 00:01:22;;;;;;;0.10;0.10;;;19.80;55.80;;;;;;4965152;28;20174;-15
2022/04/20 00:03:48;;;;;;;0.22;0.20;;;19.80;55.70;;;;;;4966248;28;20571;-15
2022/04/20 00:06:14;;;;;;;0.10;0.10;;;19.90;55.70;;;;;;4973804;28;20085;-15
2022/04/20 00:08:40;;;;;;;0.28;0.20;;;19.90;55.70;;;;;;4971399;28;20059;-15
2022/04/20 00:11:07;;;;;;;0.32;0.17;;;19.80;55.80;;;;;;4958397;28;20046;-15
2022/04/20 00:13:33;;;;;;;0.10;0.10;;;19.80;55.80;;;;;;4964691;28;20085;-15
2022/04/20 00:15:59;;;;;;;0.10;0.10;;;19.80;55.80;;;;;;4969584;28;20054;-15
2022/04/20 00:18:25;;;;;;;0.20;0.20;;;19.80;55.70;;;;;;4972512;28;20050;-15
2022/04/20 00:20:50;;;;;;;0.10;0.10;;;19.90;55.70;;;;;;4971476;28;20524;-14
2022/04/20 00:23:16;;;;;;;0.10;0.10;;;19.80;55.80;;;;;;4973384;28;20435;-15
2022/04/20 00:25:41;;;;;;;0.10;0.00;;;19.80;55.90;;;;;;4970470;28;20050;-14
2022/04/20 00:28:07;;;;;;;0.63;0.10;;;19.80;55.80;;;;;;4973025;28;20050;-15
2022/04/20 00:30:33;;;;;;;0.10;0.10;;;19.80;55.80;;;;;;4970579;28;20074;-16
2022/04/20 00:32:59;;;;;;;0.28;0.28;;;19.80;55.70;;;;;;4970985;28;20065;-15
2022/04/20 00:35:25;;;;;;;0.20;0.20;;;19.80;55.80;;;;;;4956683;28;20497;-14
2022/04/20 00:37:50;;;;;;;0.28;0.10;;;19.80;55.80;;;;;;4966728;28;20381;-15
2022/04/20 00:40:16;;;;;;;0.25;0.20;;;19.80;55.80;;;;;;4956955;28;20650;-14
2022/04/20 00:42:42;;;;;;;0.38;0.10;;;19.80;55.90;;;;;;4957220;28;20106;-15
2022/04/20 00:45:08;;;;;;;0.10;0.10;;;19.80;55.90;;;;;;4973146;28;20042;-14
2022/04/20 00:47:37;;;;;;;0.13;0.10;;;19.80;56.10;;;;;;4965421;28;20431;-14
2022/04/20 00:50:04;;;;;;;0.43;0.20;;;19.80;56.00;;;;;;4971273;28;20042;-14
2022/04/20 00:52:30;;;;;;;0.45;0.20;;;19.80;55.90;;;;;;4967852;28;20046;-15
2022/04/20 00:54:55;;;;;;;0.25;0.10;;;19.80;55.90;;;;;;4973444;28;20047;-15
2022/04/20 00:57:21;;;;;;;0.28;0.10;;;19.80;56.00;;;;;;4974571;28;20046;-15
2022/04/20 00:59:47;;;;;;;0.43;0.22;;;19.80;55.90;;;;;;4975710;28;20416;-16
2022/04/20 01:02:12;;;;;;;0.10;0.10;;;19.80;55.90;;;;;;4955742;28;20074;-14
2022/04/20 01:04:38;;;;;;;0.40;0.30;;;19.70;56.00;;;;;;4955434;28;20176;-15
2022/04/20 01:07:16;;;;;;;0.10;0.10;;;19.70;55.90;;;;;;4969996;28;20046;-14
2022/04/20 01:09:43;;;;;;;0.22;0.10;;;19.70;56.00;;;;;;4975205;28;20030;-14
2022/04/20 01:12:09;;;;;;;0.30;0.10;;;19.70;56.10;;;;;;4974998;28;20636;-14
2022/04/20 01:14:37;;;;;;;0.10;0.10;;;19.70;56.00;;;;;;4974964;28;20623;-14
2022/04/20 01:17:03;;;;;;;0.20;0.20;;;19.70;56.10;;;;;;4990572;28;20053;-15
2022/04/20 01:19:38;;;;;;;0.10;0.10;;;19.70;56.00;;;;;;4968226;28;20054;-15
2022/04/20 01:22:04;;;;;;;2.20;0.15;;;19.70;56.00;;;;;;4973286;28;20054;-15
2022/04/20 01:24:30;;;;;;;0.10;0.10;;;19.70;56.00;;;;;;4968548;28;21297;-14
2022/04/20 01:26:56;;;;;;;0.30;0.13;;;19.70;55.90;;;;;;4975985;28;20459;-16
2022/04/20 01:29:21;;;;;;;0.13;0.10;;;19.70;55.90;;;;;;4971195;28;20102;-15
2022/04/20 01:31:47;;;;;;;0.20;0.20;;;19.70;55.90;;;;;;4975370;28;20055;-15
2022/04/20 01:34:13;;;;;;;0.10;0.10;;;19.70;55.90;;;;;;4964972;28;20039;-15
2022/04/20 01:36:39;;;;;;;0.20;0.10;;;19.70;55.90;;;;;;4957608;28;20038;-14
2022/04/20 01:39:04;;;;;;;0.10;0.10;;;19.70;55.80;;;;;;4960605;28;20040;-15
2022/04/20 01:41:30;;;;;;;0.20;0.20;;;19.70;55.80;;;;;;4979345;28;20070;-15
2022/04/20 01:43:56;;;;;;;0.40;0.03;;;19.70;55.80;;;;;;4966948;28;20047;-15
2022/04/20 01:46:21;;;;;;;0.13;0.13;;;19.70;55.80;;;;;;4979700;28;20054;-15
2022/04/20 01:48:47;;;;;;;0.17;0.17;;;19.70;55.90;;;;;;4978596;28;20048;-14
2022/04/20 01:53:57;;;;;;;0.20;0.20;;;19.70;55.90;;;;;;4964912;28;20054;-17
2022/04/20 01:56:23;;;;;;;0.20;0.20;;;19.70;55.80;;;;;;4973426;28;20051;-15
2022/04/20 01:58:48;;;;;;;0.10;0.10;;;19.70;55.80;;;;;;4978662;28;20038;-15
2022/04/20 02:04:02;;;;;;;0.10;0.10;;;19.60;55.80;;;;;;4959460;28;20054;-15
2022/04/20 02:06:28;;;;;;;0.10;0.10;;;19.70;55.90;;;;;;4978844;28;20065;-16
2022/04/20 02:08:53;;;;;;;0.13;0.10;;;19.60;55.90;;;;;;4963819;28;20055;-14
2022/04/20 02:11:19;;;;;;;0.10;0.10;;;19.60;55.90;;;;;;4970149;28;20051;-15
2022/04/20 02:13:45;;;;;;;0.10;0.10;;;19.60;55.90;;;;;;4972713;28;20416;-15
2022/04/20 02:16:10;;;;;;;0.20;0.20;;;19.60;55.90;;;;;;4960142;28;20512;-15
2022/04/20 02:18:36;;;;;;;0.20;0.17;;;19.60;56.00;;;;;;4970289;28;20047;-14
2022/04/20 02:21:02;;;;;;;0.30;0.20;;;19.60;55.90;;;;;;4960988;28;20043;-16
2022/04/20 02:23:27;;;;;;;0.17;0.10;;;19.60;55.90;;;;;;4958469;28;20515;-15
2022/04/20 02:25:53;;;;;;;0.20;0.20;;;19.60;56.00;;;;;;4958154;28;20074;-15
2022/04/20 02:28:19;;;;;;;0.10;0.10;;;19.60;56.00;;;;;;4960002;28;20121;-15
2022/04/20 02:30:45;;;;;;;0.28;0.10;;;19.60;56.00;;;;;;4976843;28;20051;-15
2022/04/20 02:33:10;;;;;;;0.00;0.00;;;19.60;56.00;;;;;;4964379;28;20553;-14
2022/04/20 02:35:36;;;;;;;0.45;0.20;;;19.60;56.00;;;;;;4978517;28;20043;-15
2022/04/20 02:38:02;;;;;;;0.10;0.10;;;19.60;55.90;;;;;;4978857;28;20555;-15
2022/04/20 02:40:27;;;;;;;0.20;0.10;;;19.60;56.00;;;;;;4973920;28;20102;-14
2022/04/20 02:42:53;;;;;;;0.30;0.30;;;19.50;55.90;;;;;;4958744;28;20071;-14
2022/04/20 02:45:19;;;;;;;0.25;0.25;;;19.60;56.00;;;;;;4959406;28;20130;-15
2022/04/20 02:47:45;;;;;;;0.10;0.10;;;19.50;55.90;;;;;;4958405;28;20583;-15
2022/04/20 02:50:10;;;;;;;0.00;0.00;;;19.50;55.90;;;;;;4968529;28;20436;-14
2022/04/20 02:52:36;;;;;;;0.10;0.08;;;19.50;56.00;;;;;;4978127;28;20074;-14
2022/04/20 02:55:01;;;;;;;0.22;0.17;;;19.60;56.10;;;;;;4972146;28;20412;-14
2022/04/20 02:57:27;;;;;;;0.32;0.20;;;19.60;56.00;;;;;;4959038;28;20054;-15
2022/04/20 02:59:53;;;;;;;0.10;0.10;;;19.50;56.00;;;;;;4958729;28;20047;-15
2022/04/20 03:02:18;;;;;;;0.10;0.10;;;19.50;56.00;;;;;;4959252;28;20558;-14
2022/04/20 03:04:44;;;;;;;0.10;0.10;;;19.50;56.10;;;;;;4975239;28;20121;-15
2022/04/20 03:07:09;;;;;;;0.20;0.10;;;19.60;56.10;;;;;;4977952;28;20508;-16
2022/04/20 03:09:35;;;;;;;0.43;0.32;;;19.50;56.00;;;;;;4971090;28;20046;-15
2022/04/20 03:12:01;;;;;;;0.10;0.10;;;19.50;56.10;;;;;;4978373;28;20515;-14
2022/04/20 03:14:26;;;;;;;0.43;0.10;;;19.50;56.00;;;;;;4972749;28;20493;-15
2022/04/20 03:16:52;;;;;;;0.32;0.10;;;19.50;56.10;;;;;;4958415;28;20047;-14
2022/04/20 03:19:17;;;;;;;0.20;0.20;;;19.50;56.10;;;;;;4975753;28;20856;-14
2022/04/20 03:21:43;;;;;;;0.47;0.30;;;19.50;56.10;;;;;;4969855;28;20081;-15
2022/04/20 03:24:09;;;;;;;0.28;0.10;;;19.50;56.20;;;;;;4959021;28;20075;-15
2022/04/20 03:26:34;;;;;;;1.25;0.10;;;19.50;56.10;;;;;;4958630;28;20043;-16
2022/04/20 03:29:00;;;;;;;0.15;0.10;;;19.50;56.20;;;;;;4958590;28;20066;-14
2022/04/20 03:31:25;;;;;;;0.10;0.10;;;19.50;56.20;;;;;;4959035;28;20051;-14
2022/04/20 03:33:51;;;;;;;0.10;0.10;;;19.50;56.20;;;;;;4973468;28;20611;-15
2022/04/20 03:36:17;;;;;;;0.10;0.10;;;19.50;56.10;;;;;;4970651;28;20039;-15
2022/04/20 03:38:42;;;;;;;0.20;0.20;;;19.50;56.20;;;;;;4958801;28;20401;-14
2022/04/20 03:41:08;;;;;;;0.05;0.05;;;19.50;56.20;;;;;;4972205;28;20047;-15
2022/04/20 03:43:34;;;;;;;0.20;0.00;;;19.50;56.20;;;;;;4957737;28;20050;-15
2022/04/20 03:45:59;;;;;;;0.10;0.10;;;19.40;56.20;;;;;;4976400;28;20051;-14
2022/04/20 03:48:26;;;;;;;0.10;0.10;;;19.50;56.20;;;;;;4977745;28;20073;-14
2022/04/20 03:50:51;;;;;;;0.20;0.20;;;19.50;56.20;;;;;;4970961;28;20485;-15
2022/04/20 03:53:18;;;;;;;0.22;0.10;;;19.40;56.20;;;;;;4977121;28;20070;-15
2022/04/20 03:55:44;;;;;;;0.10;0.10;;;19.40;56.30;;;;;;4969466;28;20134;-14
2022/04/20 03:58:10;;;;;;;0.10;0.03;;;19.40;56.30;;;;;;4958096;28;20063;-14
2022/04/20 04:00:35;;;;;;;0.10;0.10;;;19.40;56.20;;;;;;4957302;28;20130;-15
2022/04/20 04:03:01;;;;;;;0.10;0.10;;;19.40;56.20;;;;;;4958397;28;20048;-15
2022/04/20 04:05:26;;;;;;;0.00;0.00;;;19.40;56.30;;;;;;4967584;28;20039;-14
2022/04/20 04:07:52;;;;;;;0.28;0.10;;;19.40;56.20;;;;;;4976172;28;20047;-14
2022/04/20 04:10:18;;;;;;;0.10;0.10;;;19.40;56.20;;;;;;4977284;28;20072;-14
2022/04/20 04:12:44;;;;;;;0.20;0.20;;;19.40;56.30;;;;;;4967060;28;20043;-15
2022/04/20 04:15:09;;;;;;;0.20;0.20;;;19.40;56.40;;;;;;4957996;28;20588;-16
2022/04/20 04:17:35;;;;;;;0.10;0.10;;;19.40;56.30;;;;;;4963255;28;20058;-15
2022/04/20 04:20:01;;;;;;;0.10;0.10;;;19.30;56.40;;;;;;4975721;28;20042;-16
2022/04/20 04:22:26;;;;;;;0.00;0.00;;;19.40;56.30;;;;;;4956284;28;20054;-14
2022/04/20 04:24:53;;;;;;;0.10;0.10;;;19.40;56.30;;;;;;4957233;28;20047;-15
2022/04/20 04:27:20;;;;;;;0.75;0.20;;;19.40;56.30;;;;;;4975079;28;20041;-14
2022/04/20 04:29:46;;;;;;;0.10;0.05;;;19.40;56.40;;;;;;4976105;28;20101;-14
2022/04/20 04:32:12;;;;;;;0.32;0.10;;;19.40;56.40;;;;;;4976638;28;20042;-15
2022/04/20 04:34:39;;;;;;;0.10;0.10;;;19.40;56.40;;;;;;4973461;28;20046;-15
2022/04/20 04:37:05;;;;;;;0.73;0.10;;;19.40;56.30;;;;;;4957599;28;20090;-15
2022/04/20 04:39:30;;;;;;;0.00;0.00;;;19.40;56.40;;;;;;4966054;28;20050;-13
2022/04/20 04:42:02;;;;;;;0.05;0.05;;;19.30;56.40;;;;;;4976216;28;20074;-14
2022/04/20 04:44:28;;;;;;;0.00;0.00;;;19.40;56.40;;;;;;4970054;28;20051;-15
2022/04/20 04:49:38;;;;;;;0.10;0.10;;;19.30;56.50;;;;;;4970463;28;20659;-15
2022/04/20 04:52:06;;;;;;;0.10;0.10;;;19.30;56.40;;;;;;4976482;28;20392;-14
2022/04/20 04:54:33;;;;;;;0.08;0.05;;;19.30;56.40;;;;;;4974796;28;20046;-14
2022/04/20 04:56:59;;;;;;;0.10;0.10;;;19.30;56.50;;;;;;4976128;28;20085;-16
2022/04/20 04:59:24;;;;;;;0.30;0.10;;;19.30;56.50;;;;;;4976474;28;20047;-15
2022/04/20 05:01:50;;;;;;;0.10;0.10;;;19.30;56.60;;;;;;4957266;28;20138;-16
2022/04/20 05:04:16;;;;;;;0.10;0.10;;;19.30;56.60;;;;;;4956139;28;20043;-16
2022/04/20 05:06:42;;;;;;;0.20;0.10;;;19.30;56.60;;;;;;4957189;28;20488;-16
2022/04/20 05:09:08;;;;;;;0.10;0.10;;;19.30;56.50;;;;;;4965156;28;20449;-15
2022/04/20 05:11:33;;;;;;;0.10;0.00;;;19.30;56.50;;;;;;4962020;28;20138;-17
2022/04/20 05:13:59;;;;;;;0.65;0.10;;;19.30;56.50;;;;;;4970332;28;20055;-15
2022/04/20 05:16:24;;;;;;;0.10;0.10;;;19.30;56.50;;;;;;4961150;28;20426;-16
2022/04/20 05:18:51;;;;;;;0.13;0.10;;;19.30;56.50;;;;;;4965392;28;20043;-15
2022/04/20 05:21:17;;;;;;;0.10;0.10;;;19.20;56.60;;;;;;4974239;28;20062;-16
2022/04/20 05:23:43;;;;;;;0.05;0.05;;;19.20;56.70;;;;;;4651224;28;10000495;-16
2022/04/20 05:26:09;;;;;;;0.40;0.20;;;19.30;57.30;;;;;;4964813;28;20734;-16
2022/04/20 05:28:35;;;;;;;0.22;0.10;;;19.30;56.80;;;;;;4961111;28;20508;-15
2022/04/20 05:31:00;;;;;;;0.30;0.20;;;19.30;56.80;;;;;;4972670;28;20054;-16
2022/04/20 05:33:26;;;;;;;0.45;0.10;;;19.20;56.80;;;;;;4972386;28;20039;-16
2022/04/20 05:35:51;;;;;;;0.10;0.10;;;19.20;56.90;;;;;;4971212;28;20053;-16
2022/04/20 05:43:45;;;;;;;1.65;0.22;;;19.30;58.00;;;;;;4957655;28;20431;-15
2022/04/20 05:46:14;;;;;;;0.10;0.10;;;19.30;59.00;;;;;;4967566;28;20153;-15
2022/04/20 05:48:39;;;;;;;0.52;0.20;;;19.30;58.60;;;;;;4964777;28;20055;-16
2022/04/20 05:51:05;;;;;;;1.00;0.30;;;19.30;58.80;;;;;;4973796;28;20043;-14
2022/04/20 05:53:31;;;;;;;0.25;0.25;;;19.30;58.70;;;;;;4963619;28;20137;-15
2022/04/20 05:55:56;;;;;;;2.40;0.25;;;19.30;58.60;;;;;;4975539;28;20043;-15
2022/04/20 05:58:22;;;;;;;0.20;0.20;;;19.40;59.10;;;;;;4975152;28;20063;-14
2022/04/20 06:00:47;;;;;;;0.30;0.20;;;19.30;58.50;;;;;;4964278;28;20047;-14
2022/04/20 06:03:13;;;;;;;0.38;0.30;;;19.30;58.50;;;;;;4974451;28;20828;-14
2022/04/20 06:05:39;;;;;;;0.68;0.22;;;19.30;58.50;;;;;;4963238;28;20051;-16
2022/04/20 06:08:30;;;;;;;0.38;0.20;;;19.30;58.20;;;;;;4973213;28;20129;-15
2022/04/20 06:10:57;;;;;;;0.88;0.45;;;19.30;57.90;;;;;;4964440;28;20058;-14
2022/04/20 06:13:24;;;;;;;3.42;0.35;;;19.20;58.20;;;;;;4975469;28;20050;-15
2022/04/20 06:15:49;;;;;;;4.47;0.65;;;19.20;58.40;;;;;;4973985;28;20042;-15
2022/04/20 06:18:15;;;;;;;2.03;0.50;;;19.20;58.40;;;;;;4972409;28;20122;-15
2022/04/20 06:20:40;;;;;;;1.10;0.85;;;19.30;58.50;;;;;;4965534;28;20074;-14
2022/04/20 06:23:06;;;;;;;5.43;0.50;;;19.40;58.30;;;;;;4964417;28;20545;-15
2022/04/20 06:25:32;;;;;;;5.65;0.60;;;19.40;58.40;;;;;;4973162;28;20043;-16
2022/04/20 06:27:57;;;;;;;0.95;0.57;;;19.30;58.30;;;;;;4959064;28;20568;-16
2022/04/20 06:30:23;;;;;;;1.10;0.40;;;19.30;58.30;;;;;;4959826;28;20042;-16
2022/04/20 06:32:48;;;;;;;2.85;0.65;;;19.40;58.30;;;;;;4968247;28;20070;-16
2022/04/20 06:35:14;;;;;;;0.73;0.40;;;19.30;58.10;;;;;;4978469;28;20181;-16
2022/04/20 06:37:39;;;;;;;1.42;0.57;;;19.40;58.10;;;;;;4978957;28;20051;-15
2022/04/20 06:40:05;;;;;;;1.15;0.70;;;19.30;57.90;;;;;;4978368;28;20039;-16
2022/04/20 06:42:33;;;;;;;1.25;0.55;;;19.40;58.00;;;;;;4963939;28;20111;-16
2022/04/20 06:44:58;;;;;;;0.90;0.38;;;19.30;57.80;;;;;;4959448;28;20043;-16
2022/04/20 06:47:24;;;;;;;2.25;0.60;;;19.30;57.80;;;;;;4959717;28;20043;-15
2022/04/20 06:49:49;;;;;;;0.55;0.52;;;19.30;57.80;;;;;;4998577;28;20038;-15
2022/04/20 07:00:28;;;;;;;4.22;0.50;;;19.40;57.60;;;;;;4959647;28;20155;-15
2022/04/20 07:03:00;;;;;;;1.17;0.68;;;19.40;57.60;;;;;;4963347;28;20070;-15
2022/04/20 07:05:26;;;;;;;0.90;0.40;;;19.40;57.50;;;;;;4978482;28;20039;-16
2022/04/20 07:07:52;;;;;;;0.63;0.55;;;19.40;57.60;;;;;;4977889;28;20562;-16
2022/04/20 07:10:17;;;;;;;1.73;0.40;;;19.40;57.50;;;;;;4963326;28;20047;-15
2022/04/20 07:12:43;;;;;;;0.70;0.50;;;19.40;57.50;;;;;;4972150;28;20130;-17
2022/04/20 07:15:09;;;;;;;2.58;0.60;;;19.40;57.40;;;;;;4977316;28;20492;-16
2022/04/20 07:17:34;;;;;;;1.77;0.88;;;19.50;57.20;;;;;;4976537;28;20043;-16
2022/04/20 07:20:01;;;;;;;0.47;0.47;;;19.60;57.00;;;;;;4974223;28;20126;-16
2022/04/20 07:22:27;;;;;;;1.33;0.60;;;19.70;56.80;;;;;;4976068;28;20054;-15
2022/04/20 07:24:52;;;;;;;0.80;0.60;;;19.80;56.50;;;;;;4974948;28;20499;-16
2022/04/20 07:27:19;;;;;;;0.35;0.35;;;19.80;56.30;;;;;;4976974;28;20042;-16
2022/04/20 07:29:44;;;;;;;0.90;0.60;;;19.90;56.30;;;;;;4976483;28;20050;-15
2022/04/20 07:32:10;;;;;;;4.13;0.50;;;19.90;56.10;;;;;;4976654;28;20096;-15
2022/04/20 07:34:35;;;;;;;0.75;0.43;;;19.80;56.20;;;;;;4974563;28;20066;-16
2022/04/20 07:37:01;;;;;;;0.73;0.50;;;19.80;56.20;;;;;;4976507;28;20129;-17
2022/04/20 07:39:27;;;;;;;0.93;0.82;;;19.90;56.30;;;;;;4975397;28;20583;-16
2022/04/20 07:41:52;;;;;;;0.60;0.60;;;19.80;56.40;;;;;;4976616;28;20077;-16
2022/04/20 07:44:18;;;;;;;1.05;0.60;;;19.70;56.50;;;;;;4976989;28;20067;-16
2022/04/20 07:46:43;;;;;;;0.68;0.60;;;19.60;56.60;;;;;;4975812;28;20061;-16
2022/04/20 07:51:53;;;;;;;0.73;0.55;;;19.60;56.70;;;;;;4976847;28;20460;-16
2022/04/20 07:54:18;;;;;;;4.75;0.68;;;19.60;56.70;;;;;;4971304;28;20039;-19
2022/04/20 07:56:44;;;;;;;1.67;0.70;;;19.60;56.70;;;;;;4975635;28;20134;-16
2022/04/20 07:59:10;;;;;;;0.77;0.52;;;19.60;56.90;;;;;;4975282;28;20046;-17
2022/04/20 08:01:36;;;;;;;1.17;0.80;;;19.60;56.80;;;;;;4976905;28;20050;-17
2022/04/20 08:04:01;;;;;;;0.75;0.60;;;19.60;56.90;;;;;;4975702;28;20049;-15
2022/04/20 08:06:27;;;;;;;0.63;0.30;;;19.60;56.90;;;;;;4976703;28;20043;-16
2022/04/20 08:08:53;;;;;;;0.80;0.60;;;19.60;56.90;;;;;;4976205;28;20404;-15
2022/04/20 08:11:18;;;;;;;0.60;0.60;;;19.60;56.90;;;;;;4977418;28;20054;-17
2022/04/20 08:16:29;;;;;;;0.88;0.57;;;19.60;56.80;;;;;;4963346;28;20125;-15
2022/04/20 08:18:54;;;;;;;0.90;0.83;;;19.60;56.90;;;;;;4623247;28;10000283;-16
2022/04/20 08:21:20;;;;;;;1.67;0.50;;;19.60;56.80;;;;;;4973135;28;20289;-15
2022/04/20 08:23:46;;;;;;;0.40;0.40;;;19.60;56.80;;;;;;4979133;28;20086;-16
2022/04/20 08:26:13;;;;;;;0.60;0.50;;;19.60;56.90;;;;;;4972832;28;20054;-15
2022/04/20 08:28:39;;;;;;;0.40;0.30;;;19.60;56.90;;;;;;4965206;28;20102;-15
2022/04/20 08:31:05;;;;;;;0.65;0.52;;;19.60;56.80;;;;;;4972195;28;20046;-16
2022/04/20 08:33:30;;;;;;;0.60;0.50;;;19.60;56.90;;;;;;4980300;28;20051;-15
2022/04/20 08:35:56;;;;;;;0.50;0.50;;;19.60;57.00;;;;;;4966271;28;20054;-15
2022/04/20 08:38:22;;;;;;;0.70;0.60;;;19.60;57.00;;;;;;4984616;28;20109;-16
2022/04/20 08:40:48;;;;;;;0.57;0.57;;;19.60;57.00;;;;;;4961789;28;20045;-15
2022/04/20 08:43:14;;;;;;;2.92;0.43;;;19.70;56.80;;;;;;4968199;28;20061;-16
2022/04/20 08:45:40;;;;;;;1.40;0.40;;;19.70;56.80;;;;;;4963727;28;20143;-15
2022/04/20 08:48:06;;;;;;;0.70;0.50;;;19.70;57.20;;;;;;4964423;28;20423;-15
2022/04/20 08:50:32;;;;;;;0.40;0.40;;;19.60;57.30;;;;;;4966492;28;20042;-15
2022/04/20 08:52:58;;;;;;;0.82;0.40;;;19.70;57.20;;;;;;4969382;28;20042;-15
2022/04/20 08:55:24;;;;;;;0.40;0.30;;;19.70;57.20;;;;;;4965527;28;20051;-16
2022/04/20 08:57:50;;;;;;;0.38;0.38;;;19.70;57.00;;;;;;4978662;28;20109;-16
2022/04/20 09:00:21;;;;;;;0.50;0.40;;;19.80;57.00;;;;;;4959400;28;20142;-16
2022/04/20 09:02:49;;;;;;;1.05;0.70;;;19.70;57.00;;;;;;4966615;28;20042;-15
2022/04/20 09:05:14;;;;;;;0.50;0.40;;;19.80;57.00;;;;;;4973454;28;20035;-15
2022/04/20 09:07:40;;;;;;;0.68;0.38;;;19.80;57.00;;;;;;4973196;28;20054;-15
2022/04/20 09:10:06;;;;;;;0.45;0.30;;;19.80;57.00;;;;;;4971585;28;20038;-15
2022/04/20 09:12:32;;;;;;;0.52;0.50;;;19.80;57.00;;;;;;4974610;28;20487;-15
2022/04/20 09:15:00;;;;;;;2.42;0.40;;;19.80;57.00;;;;;;4970316;28;20043;-16
2022/04/20 09:17:26;;;;;;;2.55;0.70;;;19.80;56.90;;;;;;4969633;28;20125;-13
2022/04/20 09:19:53;;;;;;;1.38;1.25;;;19.80;56.70;;;;;;4973679;28;20039;-16
2022/04/20 09:22:26;;;;;;;1.83;1.70;;;19.70;56.30;;;;;;4971011;28;20054;-15
2022/04/20 09:25:11;;;;;;;1.65;1.55;;;19.70;56.20;;;;;;4972985;28;20089;-15
2022/04/20 09:27:43;;;;;;;3.42;1.63;;;19.80;56.30;;;;;;4973135;28;20046;-15
2022/04/20 09:30:16;;;;;;;2.88;2.20;;;19.70;56.00;;;;;;4972259;28;20191;-15
2022/04/20 09:32:43;;;;;;;2.47;2.25;;;19.70;55.50;;;;;;4971977;28;20039;-15
2022/04/20 09:35:13;;;;;;;2.50;2.30;;;19.70;55.40;;;;;;4975720;28;20045;-14
2022/04/20 09:37:39;;;;;;;4.05;2.65;;;19.60;55.30;;;;;;4976346;28;20495;-15
2022/04/20 09:40:05;;;;;;;2.72;2.03;;;19.70;55.40;;;;;;4964414;28;20046;-15
2022/04/20 09:42:32;;;;;;;3.20;2.08;;;19.70;55.50;;;;;;4963580;28;20047;-15
2022/04/20 09:45:02;;;;;;;3.25;1.95;;;19.70;55.60;;;;;;4973742;28;20106;-15
2022/04/20 09:50:22;;;;;;;1.80;1.70;;;19.80;55.60;;;;;;4963620;28;20045;-15
2022/04/20 09:52:48;;;;;;;;;;;19.80;55.60;;;;;;4971084;28;20133;-15
2022/04/20 09:55:28;;;;;;;1.92;1.65;;;19.80;55.70;;;;;;4985045;28;19922;-15
2022/04/20 09:58:11;;;;;;;1.70;1.58;;;19.90;55.60;;;;;;4976227;28;20563;-17
2022/04/20 10:00:48;;;;;;;2.50;2.10;;;19.90;55.40;;;;;;4979493;28;20053;-15
2022/04/20 10:03:24;;;;;;;3.25;2.65;;;19.90;55.20;;;;;;4961251;28;20047;-15
2022/04/20 10:05:50;;;;;;;2.85;2.63;;;19.80;54.80;;;;;;4969398;28;20043;-14
2022/04/20 10:08:16;;;;;;;3.33;3.03;;;19.80;54.40;;;;;;4974209;28;20190;-15
2022/04/20 10:10:42;;;;;;;4.75;3.08;;;19.80;55.50;;;;;;4975236;28;20058;-15
2022/04/20 10:13:07;;;;;;;3.15;2.95;;;19.80;55.00;;;;;;4972558;28;20051;-15
2022/04/20 10:18:19;;;;;;;3.42;3.13;;;19.80;54.70;;;;;;4975087;28;20058;-15
2022/04/20 10:20:50;;;;;;;3.20;2.78;;;19.80;54.60;;;;;;4987987;28;20129;-15
2022/04/20 10:23:18;;;;;;;2.50;2.30;;;19.90;54.80;;;;;;4991988;28;20062;-15
2022/04/20 10:25:44;;;;;;;3.15;2.60;;;20.00;54.60;;;;;;4978790;28;20046;-14
2022/04/20 10:28:40;;;;;;;2.40;2.20;;;20.00;54.60;;;;;;4971698;28;20051;-15
2022/04/20 10:31:18;;;;;;;2.88;2.33;;;20.00;54.50;;;;;;4974303;28;20054;-15
2022/04/20 10:33:44;;;;;;;2.47;2.30;;;20.10;54.60;;;;;;4976576;28;20125;-15
2022/04/20 10:36:11;;;;;;;2.75;2.40;;;20.10;54.50;;;;;;4967913;28;20047;-15
2022/04/20 10:38:37;;;;;;;3.03;2.80;;;20.20;54.60;;;;;;4966167;28;20077;-15
2022/04/20 10:41:10;;;;;;;2.97;2.60;;;20.10;54.40;;;;;;4987529;28;20131;-15
2022/04/20 10:43:39;;;;;;;2.30;2.15;;;20.10;54.60;;;;;;4974943;28;20590;-17
2022/04/20 10:46:16;;;;;;;2.60;2.40;;;20.20;54.60;;;;;;4644514;28;10001378;-15
2022/04/20 10:48:45;;;;;;;2.60;2.40;;;20.20;54.60;;;;;;4961683;28;20046;-15
2022/04/20 10:51:34;;;;;;;2.53;2.33;;;20.20;54.60;;;;;;4969877;28;20465;-15
2022/04/20 10:54:18;;;;;;;1.90;1.80;;;20.20;54.60;;;;;;4958704;28;20416;-16
2022/04/20 10:56:49;;;;;;;2.40;2.20;;;20.20;54.70;;;;;;4973786;28;20050;-14
2022/04/20 10:59:15;;;;;;;3.33;2.20;;;20.20;54.80;;;;;;4974065;28;20610;-15
2022/04/20 11:02:02;;;;;;;2.70;2.45;;;20.20;54.80;;;;;;4963563;28;20414;-15
2022/04/20 11:04:47;;;;;;;2.40;2.20;;;20.20;54.90;;;;;;4971965;28;20042;-17
2022/04/20 11:07:17;;;;;;;2.83;2.63;;;20.20;55.00;;;;;;4964206;28;20042;-15
2022/04/20 11:09:43;;;;;;;2.47;2.38;;;20.20;55.00;;;;;;4972586;28;20043;-15
2022/04/20 11:21:04;;;;;;;;;;;20.30;55.20;;;;;;4973695;28;20041;-14
2022/04/20 11:24:08;;;;;;;3.63;2.28;;;20.30;55.20;;;;;;4973617;28;19928;-15
2022/04/20 11:26:49;;;;;;;2.67;2.47;;;20.30;55.30;;;;;;4967341;28;20081;-15
2022/04/20 11:29:24;;;;;;;2.75;2.55;;;20.30;55.30;;;;;;4969915;28;20027;-15
2022/04/20 11:32:09;;;;;;;3.30;2.20;;;20.40;55.30;;;;;;4970340;28;20049;-15
2022/04/20 11:34:36;;;;;;;2.10;2.00;;;20.40;55.30;;;;;;4961860;28;20118;-15
2022/04/20 11:37:04;;;;;;;2.63;2.42;;;20.40;55.30;;;;;;4971088;28;20058;-15
2022/04/20 11:39:30;;;;;;;2.13;2.03;;;20.40;55.30;;;;;;4970866;28;20049;-15
2022/04/20 11:41:57;;;;;;;1.98;1.88;;;20.40;55.30;;;;;;4965436;28;20043;-14
2022/04/20 11:44:36;;;;;;;2.55;2.45;;;20.40;55.40;;;;;;4973464;28;20599;-15
2022/04/20 11:47:06;;;;;;;2.90;2.50;;;20.40;55.30;;;;;;4971019;28;20047;-17
2022/04/20 11:49:42;;;;;;;1.98;1.88;;;20.40;55.30;;;;;;4973808;28;20585;-18
2022/04/20 11:52:15;;;;;;;2.00;1.90;;;20.40;55.30;;;;;;4967139;28;20047;-15
2022/04/20 11:54:43;;;;;;;2.22;2.10;;;20.40;55.40;;;;;;4967772;28;20538;-14
2022/04/20 11:57:10;;;;;;;2.30;2.10;;;20.40;55.30;;;;;;4965196;28;20078;-16
2022/04/20 11:59:48;;;;;;;2.22;1.98;;;20.50;55.20;;;;;;4972339;28;20045;-16
2022/04/20 12:02:15;;;;;;;2.13;2.03;;;20.50;55.20;;;;;;4973617;28;20047;-15
2022/04/20 12:04:42;;;;;;;2.45;2.20;;;20.50;55.20;;;;;;4972778;28;20070;-14
2022/04/20 12:07:08;;;;;;;2.13;1.92;;;20.50;55.20;;;;;;4968918;28;20188;-16
2022/04/20 12:09:36;;;;;;;2.17;2.08;;;20.50;55.20;;;;;;4977039;28;20074;-15
2022/04/20 12:12:05;;;;;;;2.50;2.38;;;20.50;55.20;;;;;;4972846;28;20050;-16
2022/04/20 12:14:32;;;;;;;2.70;2.50;;;20.50;55.20;;;;;;4964339;28;20492;-17
2022/04/20 12:17:00;;;;;;;2.58;2.38;;;20.60;55.30;;;;;;4974033;28;20062;-15
2022/04/20 12:19:25;;;;;;;2.50;2.30;;;20.60;55.20;;;;;;4966129;28;20098;-15
2022/04/20 12:21:51;;;;;;;4.65;2.50;;;20.60;55.20;;;;;;4995847;28;20054;-16
2022/04/20 12:24:20;;;;;;;3.53;2.65;;;20.60;55.20;;;;;;4974906;28;20567;-15
2022/04/20 12:26:47;;;;;;;2.78;2.58;;;20.60;55.20;;;;;;4974180;28;20094;-14
2022/04/20 12:29:13;;;;;;;3.35;3.15;;;20.60;55.10;;;;;;4975475;28;20035;-15
2022/04/20 12:31:43;;;;;;;3.35;3.05;;;20.60;55.10;;;;;;4965881;28;20047;-16
2022/04/20 12:34:10;;;;;;;3.03;2.83;;;20.60;55.20;;;;;;4958485;28;20107;-15
2022/04/20 12:36:58;;;;;;;3.83;3.50;;;20.60;55.10;;;;;;4973926;28;20047;-15
2022/04/20 12:39:34;;;;;;;3.95;3.65;;;20.60;55.00;;;;;;4972595;28;20718;-15
2022/04/20 12:42:10;;;;;;;4.05;3.75;;;20.60;55.10;;;;;;4972591;28;20203;-15
2022/04/20 12:44:51;;;;;;;4.22;3.83;;;20.60;55.10;;;;;;4972770;28;20069;-15
2022/04/20 12:47:17;;;;;;;3.75;3.55;;;20.60;55.00;;;;;;4971584;28;20054;-15
2022/04/20 12:49:44;;;;;;;4.82;4.45;;;20.60;55.00;;;;;;4974499;28;20045;-15
2022/04/20 12:52:12;;;;;;;4.78;4.47;;;20.60;55.00;;;;;;4972362;28;20047;-15
2022/04/20 12:54:39;;;;;;;4.70;4.07;;;20.60;55.00;;;;;;4971245;28;20035;-15
2022/04/20 13:03:20;;;;;;;5.40;5.00;;;20.60;54.80;;;;;;4962919;28;20455;-17
2022/04/20 13:05:46;;;;;;;4.63;4.28;;;20.70;54.60;;;;;;4959195;28;20073;-18
2022/04/20 13:08:12;;;;;;;5.75;5.25;;;20.70;54.50;;;;;;4964327;28;20042;-15
2022/04/20 13:10:43;;;;;;;5.90;4.63;;;20.70;54.50;;;;;;4987328;28;20038;-15
2022/04/20 13:13:08;;;;;;;6.07;5.55;;;20.70;54.50;;;;;;4962725;28;20050;-15
2022/04/20 13:15:34;;;;;;;5.50;5.00;;;20.70;54.70;;;;;;4976497;28;20043;-15
2022/04/20 13:18:00;;;;;;;6.20;4.78;;;20.70;54.50;;;;;;4976538;28;20043;-15
2022/04/20 13:20:27;;;;;;;5.60;5.13;;;20.70;54.60;;;;;;4975845;28;20138;-15
2022/04/20 13:22:53;;;;;;;5.10;4.47;;;20.70;54.50;;;;;;4624013;28;9999753;-15
2022/04/20 13:28:03;;;;;;;6.03;5.55;;;20.70;54.40;;;;;;4970315;28;20101;-16
2022/04/20 13:30:51;;;;;;;6.10;5.50;;;20.70;54.40;;;;;;4965699;28;20078;-16
2022/04/20 13:33:16;;;;;;;5.32;4.93;;;20.70;54.50;;;;;;4969680;28;20061;-15
2022/04/20 13:35:44;;;;;;;6.30;5.70;;;20.70;54.60;;;;;;4968523;28;20039;-15
2022/04/20 13:38:10;;;;;;;5.88;5.32;;;20.70;54.50;;;;;;4970416;28;20085;-15
2022/04/20 13:40:38;;;;;;;5.80;5.30;;;20.80;54.40;;;;;;4972846;28;20053;-15